createdAt,value
2019-02-09T05:00:20.966Z,70.20
2019-02-09T05:02:43.419Z,70.40
2019-02-09T05:05:06.127Z,70.60
2019-02-09T05:07:28.632Z,70.60
2019-02-09T05:09:51.143Z,70.70
2019-02-09T05:12:13.550Z,70.50
2019-02-09T05:14:35.970Z,70.90
2019-02-09T06:01:14.503Z,74.50
2019-02-09T06:03:37.029Z,74.40
2019-02-09T06:05:59.547Z,74.20
2019-02-09T06:08:41.906Z,74.20
2019-02-09T06:11:16.759Z,74.20
2019-02-09T06:13:51.828Z,74.30
2019-02-09T07:00:44.799Z,74.80
2019-02-09T07:03:07.222Z,74.60
2019-02-09T07:05:29.646Z,74.30
2019-02-09T07:07:52.038Z,74.10
2019-02-09T07:10:19.575Z,74.00
2019-02-09T07:12:41.994Z,73.90
2019-02-09T08:02:09.050Z,68.40
2019-02-09T08:04:31.490Z,68.60
2019-02-09T08:06:53.902Z,68.80
2019-02-09T08:09:16.314Z,68.70
2019-02-09T08:11:38.827Z,69.00
2019-02-09T08:14:01.234Z,69.10
2019-02-09T09:00:18.343Z,61.40
2019-02-09T09:02:40.858Z,59.90
2019-02-09T09:05:09.715Z,54.80
2019-02-09T09:07:29.436Z,44.40
2019-02-09T09:09:51.954Z,39.70
2019-02-09T09:12:14.354Z,35.00
2019-02-09T09:14:36.750Z,30.70
2019-02-09T10:00:35.218Z,37.20
2019-02-09T10:02:57.660Z,30.60
2019-02-09T10:05:20.166Z,27.90
2019-02-09T10:07:55.011Z,25.70
2019-02-09T10:10:18.170Z,24.90
2019-02-09T10:12:40.582Z,24.30
2019-02-09T11:02:36.269Z,39.80
2019-02-09T11:04:58.832Z,40.00
2019-02-09T11:07:21.333Z,41.00
2019-02-09T11:09:43.782Z,40.30
2019-02-09T11:12:06.213Z,39.20
2019-02-09T11:14:28.758Z,39.10
2019-02-09T12:01:09.889Z,40.30
2019-02-09T12:03:32.335Z,40.30
2019-02-09T12:05:54.742Z,39.50
2019-02-09T12:08:17.188Z,40.00
2019-02-09T12:10:40.126Z,40.40
2019-02-09T12:13:03.490Z,39.50
2019-02-09T13:02:33.267Z,40.60
2019-02-09T13:04:55.746Z,40.60
2019-02-09T13:07:18.225Z,40.40
2019-02-09T13:09:40.670Z,40.40
2019-02-09T13:12:03.181Z,40.70
2019-02-09T13:14:25.705Z,41.20
2019-02-09T14:01:01.535Z,44.50
2019-02-09T14:03:37.848Z,44.30
2019-02-09T14:06:12.866Z,44.60
2019-02-09T14:08:48.360Z,45.30
2019-02-09T14:11:23.337Z,45.30
2019-02-09T14:13:58.678Z,45.00
2019-02-09T15:00:58.404Z,48.00
2019-02-09T15:03:33.647Z,48.10
2019-02-09T15:06:08.727Z,48.10
2019-02-09T15:08:31.275Z,48.60
2019-02-09T15:10:53.685Z,48.90
2019-02-09T15:13:16.271Z,49.20
2019-02-09T16:01:57.938Z,54.20
2019-02-09T16:04:20.378Z,54.50
2019-02-09T16:06:42.832Z,54.60
2019-02-09T16:09:07.307Z,54.80
2019-02-09T16:11:30.635Z,55.00
2019-02-09T16:13:53.055Z,55.20
2019-02-09T16:16:15.591Z,55.60
2019-02-09T17:02:32.862Z,56.50
2019-02-09T17:04:55.323Z,56.60
2019-02-09T17:07:17.742Z,56.70
2019-02-09T17:09:40.170Z,56.60
2019-02-09T17:12:02.686Z,56.60
2019-02-09T17:14:25.100Z,56.50
2019-02-09T17:30:29.571Z,56.90
2019-02-09T17:32:52.267Z,56.80
2019-02-09T17:35:14.866Z,56.80
2019-02-09T17:37:37.380Z,56.90
2019-02-09T17:39:59.843Z,57.00
2019-02-09T17:42:22.360Z,57.00
2019-02-09T17:44:44.849Z,56.90
2019-02-09T17:47:07.298Z,57.00
2019-02-09T17:49:29.734Z,56.90
2019-02-09T17:51:52.163Z,57.00
2019-02-09T17:54:14.561Z,56.90
2019-02-09T17:56:36.999Z,56.80
2019-02-09T17:58:59.405Z,56.90
2019-02-09T18:01:21.836Z,56.90
2019-02-09T18:03:44.238Z,56.80
2019-02-09T18:06:06.682Z,56.70
2019-02-09T18:08:29.185Z,56.70
2019-02-09T18:10:51.689Z,56.80
2019-02-09T18:13:14.110Z,56.80
2019-02-09T19:00:54.883Z,56.90
2019-02-09T19:03:17.310Z,56.80
2019-02-09T19:05:39.715Z,56.90
2019-02-09T19:08:21.731Z,56.90
2019-02-09T19:10:56.947Z,56.90
2019-02-09T19:13:32.670Z,57.00
2019-02-09T20:01:11.598Z,57.90
2019-02-09T20:03:34.137Z,57.90
2019-02-09T20:05:56.580Z,58.10
2019-02-09T20:08:31.836Z,58.00
2019-02-09T20:10:54.257Z,57.90
2019-02-09T20:13:16.667Z,58.20
2019-02-09T21:00:19.710Z,61.00
2019-02-09T21:02:42.227Z,61.10
2019-02-09T21:05:05.126Z,61.30
2019-02-09T21:07:27.542Z,61.30
2019-02-09T21:10:02.139Z,61.60
